sensor_id;sensor_type;location;lat;lon;timestamp;temperature;humidity
48454;DHT22;34261;55.678;12.464;2022-09-20T00:01:10;11.50;99.90
48454;DHT22;34261;55.678;12.464;2022-09-20T00:03:38;11.50;99.90
48454;DHT22;34261;55.678;12.464;2022-09-20T00:06:06;11.50;99.90
48454;DHT22;34261;55.678;12.464;2022-09-20T00:08:33;11.50;99.90
48454;DHT22;34261;55.678;12.464;2022-09-20T00:11:04;11.50;99.90
48454;DHT22;34261;55.678;12.464;2022-09-20T00:13:32;11.60;99.90
48454;DHT22;34261;55.678;12.464;2022-09-20T00:15:58;11.60;99.90
48454;DHT22;34261;55.678;12.464;2022-09-20T00:18:25;11.60;99.90
48454;DHT22;34261;55.678;12.464;2022-09-20T00:20:51;11.60;99.90
48454;DHT22;34261;55.678;12.464;2022-09-20T00:23:17;11.70;99.90
48454;DHT22;34261;55.678;12.464;2022-09-20T00:25:43;11.70;99.90
48454;DHT22;34261;55.678;12.464;2022-09-20T00:28:11;11.70;99.90
48454;DHT22;34261;55.678;12.464;2022-09-20T00:30:37;11.70;99.90
48454;DHT22;34261;55.678;12.464;2022-09-20T00:33:04;11.70;99.90
48454;DHT22;34261;55.678;12.464;2022-09-20T00:35:30;11.70;99.90
48454;DHT22;34261;55.678;12.464;2022-09-20T00:37:56;11.80;99.90
48454;DHT22;34261;55.678;12.464;2022-09-20T00:40:22;11.70;99.90
48454;DHT22;34261;55.678;12.464;2022-09-20T00:42:49;11.80;99.90
48454;DHT22;34261;55.678;12.464;2022-09-20T00:45:24;11.80;99.90
48454;DHT22;34261;55.678;12.464;2022-09-20T00:47:56;11.90;99.90
48454;DHT22;34261;55.678;12.464;2022-09-20T00:55:31;11.90;99.90
48454;DHT22;34261;55.678;12.464;2022-09-20T00:57:58;11.90;99.90
48454;DHT22;34261;55.678;12.464;2022-09-20T01:00:26;11.90;99.90
48454;DHT22;34261;55.678;12.464;2022-09-20T01:03:00;12.00;99.90
48454;DHT22;34261;55.678;12.464;2022-09-20T01:05:28;12.00;99.90
48454;DHT22;34261;55.678;12.464;2022-09-20T01:07:58;12.00;99.90
48454;DHT22;34261;55.678;12.464;2022-09-20T01:10:27;12.00;99.90
48454;DHT22;34261;55.678;12.464;2022-09-20T01:12:59;12.00;99.90
48454;DHT22;34261;55.678;12.464;2022-09-20T01:15:29;12.00;99.90
48454;DHT22;34261;55.678;12.464;2022-09-20T01:18:02;12.00;99.90
48454;DHT22;34261;55.678;12.464;2022-09-20T01:20:39;12.00;99.90
48454;DHT22;34261;55.678;12.464;2022-09-20T02:47:43;11.50;99.90
48454;DHT22;34261;55.678;12.464;2022-09-20T02:52:53;11.50;99.90
48454;DHT22;34261;55.678;12.464;2022-09-20T02:55:34;11.50;99.90
48454;DHT22;34261;55.678;12.464;2022-09-20T03:01:01;11.50;99.90
48454;DHT22;34261;55.678;12.464;2022-09-20T03:03:39;11.50;99.90
48454;DHT22;34261;55.678;12.464;2022-09-20T03:06:27;11.40;99.90
48454;DHT22;34261;55.678;12.464;2022-09-20T03:09:53;11.30;99.90
48454;DHT22;34261;55.678;12.464;2022-09-20T04:05:00;11.40;99.90
48454;DHT22;34261;55.678;12.464;2022-09-20T04:10:43;11.40;99.90
48454;DHT22;34261;55.678;12.464;2022-09-20T04:13:41;11.40;99.90
48454;DHT22;34261;55.678;12.464;2022-09-20T04:16:31;11.30;99.90
48454;DHT22;34261;55.678;12.464;2022-09-20T04:19:27;11.30;99.90
48454;DHT22;34261;55.678;12.464;2022-09-20T04:21:57;11.20;99.90
48454;DHT22;34261;55.678;12.464;2022-09-20T04:27:19;11.20;99.90
48454;DHT22;34261;55.678;12.464;2022-09-20T04:32:29;11.10;99.90
48454;DHT22;34261;55.678;12.464;2022-09-20T04:34:58;11.00;99.90
48454;DHT22;34261;55.678;12.464;2022-09-20T04:37:45;11.00;99.90
48454;DHT22;34261;55.678;12.464;2022-09-20T04:43:15;11.00;99.90
48454;DHT22;34261;55.678;12.464;2022-09-20T04:46:17;11.00;99.90
48454;DHT22;34261;55.678;12.464;2022-09-20T05:00:07;11.30;99.90
48454;DHT22;34261;55.678;12.464;2022-09-20T05:28:48;11.60;99.90
48454;DHT22;34261;55.678;12.464;2022-09-20T05:37:01;11.60;99.90
48454;DHT22;34261;55.678;12.464;2022-09-20T05:42:41;11.60;99.90
48454;DHT22;34261;55.678;12.464;2022-09-20T05:56:21;11.70;99.90
48454;DHT22;34261;55.678;12.464;2022-09-20T06:01:57;11.70;99.90
48454;DHT22;34261;55.678;12.464;2022-09-20T06:07:23;11.90;99.90
48454;DHT22;34261;55.678;12.464;2022-09-20T06:12:55;12.00;99.90
48454;DHT22;34261;55.678;12.464;2022-09-20T06:15:31;12.20;99.90
48454;DHT22;34261;55.678;12.464;2022-09-20T06:18:23;12.30;99.90
48454;DHT22;34261;55.678;12.464;2022-09-20T06:21:21;12.30;99.90
48454;DHT22;34261;55.678;12.464;2022-09-20T06:23:48;12.40;99.90
48454;DHT22;34261;55.678;12.464;2022-09-20T06:26:20;12.40;99.90
48454;DHT22;34261;55.678;12.464;2022-09-20T06:28:53;12.50;99.90
48454;DHT22;34261;55.678;12.464;2022-09-20T06:31:20;12.60;99.90
48454;DHT22;34261;55.678;12.464;2022-09-20T06:33:59;12.70;99.90
48454;DHT22;34261;55.678;12.464;2022-09-20T06:36:34;12.80;99.90
48454;DHT22;34261;55.678;12.464;2022-09-20T06:42:40;12.90;99.90
48454;DHT22;34261;55.678;12.464;2022-09-20T06:45:09;12.90;99.90
48454;DHT22;34261;55.678;12.464;2022-09-20T06:47:34;13.00;99.90
48454;DHT22;34261;55.678;12.464;2022-09-20T06:50:00;13.10;99.90
48454;DHT22;34261;55.678;12.464;2022-09-20T06:52:26;13.20;99.90
48454;DHT22;34261;55.678;12.464;2022-09-20T06:54:53;13.20;99.90
48454;DHT22;34261;55.678;12.464;2022-09-20T06:57:41;13.30;99.90
48454;DHT22;34261;55.678;12.464;2022-09-20T07:00:08;13.40;99.90
48454;DHT22;34261;55.678;12.464;2022-09-20T07:02:36;13.50;99.90
48454;DHT22;34261;55.678;12.464;2022-09-20T07:05:02;13.50;99.90
48454;DHT22;34261;55.678;12.464;2022-09-20T07:07:29;13.50;99.90
48454;DHT22;34261;55.678;12.464;2022-09-20T07:09:54;13.50;99.90
48454;DHT22;34261;55.678;12.464;2022-09-20T07:12:20;13.50;99.90
48454;DHT22;34261;55.678;12.464;2022-09-20T07:14:45;13.50;99.90
48454;DHT22;34261;55.678;12.464;2022-09-20T07:17:11;13.70;99.90
48454;DHT22;34261;55.678;12.464;2022-09-20T07:19:38;13.80;99.90
48454;DHT22;34261;55.678;12.464;2022-09-20T07:22:04;14.00;99.90
48454;DHT22;34261;55.678;12.464;2022-09-20T07:24:30;14.20;99.90
48454;DHT22;34261;55.678;12.464;2022-09-20T07:26:59;14.40;99.90
48454;DHT22;34261;55.678;12.464;2022-09-20T07:29:25;14.50;99.90
48454;DHT22;34261;55.678;12.464;2022-09-20T07:31:51;14.60;99.90
48454;DHT22;34261;55.678;12.464;2022-09-20T07:34:17;14.50;99.90
48454;DHT22;34261;55.678;12.464;2022-09-20T07:36:48;14.50;99.90
48454;DHT22;34261;55.678;12.464;2022-09-20T07:39:15;14.70;99.90
48454;DHT22;34261;55.678;12.464;2022-09-20T07:41:41;14.80;99.90
48454;DHT22;34261;55.678;12.464;2022-09-20T07:44:07;15.00;99.90
48454;DHT22;34261;55.678;12.464;2022-09-20T07:46:50;15.10;99.90
48454;DHT22;34261;55.678;12.464;2022-09-20T07:49:16;15.20;99.90
48454;DHT22;34261;55.678;12.464;2022-09-20T07:51:41;15.20;99.90
48454;DHT22;34261;55.678;12.464;2022-09-20T07:54:07;15.20;99.90
48454;DHT22;34261;55.678;12.464;2022-09-20T07:56:33;15.30;99.90
48454;DHT22;34261;55.678;12.464;2022-09-20T07:58:59;15.40;99.90
48454;DHT22;34261;55.678;12.464;2022-09-20T08:01:25;15.30;99.90
48454;DHT22;34261;55.678;12.464;2022-09-20T08:03:50;15.40;99.90
48454;DHT22;34261;55.678;12.464;2022-09-20T08:06:16;15.40;99.90
48454;DHT22;34261;55.678;12.464;2022-09-20T08:08:43;15.60;99.90
48454;DHT22;34261;55.678;12.464;2022-09-20T08:11:15;15.70;99.90
48454;DHT22;34261;55.678;12.464;2022-09-20T08:13:48;15.70;99.90
48454;DHT22;34261;55.678;12.464;2022-09-20T08:16:15;15.90;99.90
48454;DHT22;34261;55.678;12.464;2022-09-20T08:18:48;16.10;99.90
48454;DHT22;34261;55.678;12.464;2022-09-20T08:21:14;16.10;99.90
48454;DHT22;34261;55.678;12.464;2022-09-20T08:23:42;16.10;99.90
48454;DHT22;34261;55.678;12.464;2022-09-20T08:26:10;16.30;99.90
48454;DHT22;34261;55.678;12.464;2022-09-20T08:28:40;16.40;99.50
48454;DHT22;34261;55.678;12.464;2022-09-20T08:31:11;16.70;99.90
48454;DHT22;34261;55.678;12.464;2022-09-20T08:33:38;16.60;99.40
48454;DHT22;34261;55.678;12.464;2022-09-20T08:36:06;16.90;99.40
48454;DHT22;34261;55.678;12.464;2022-09-20T08:38:33;17.00;98.90
48454;DHT22;34261;55.678;12.464;2022-09-20T08:41:13;16.90;98.20
48454;DHT22;34261;55.678;12.464;2022-09-20T08:44:11;16.80;98.70
48454;DHT22;34261;55.678;12.464;2022-09-20T08:46:39;16.90;98.50
48454;DHT22;34261;55.678;12.464;2022-09-20T08:49:07;16.80;99.60
48454;DHT22;34261;55.678;12.464;2022-09-20T08:51:38;16.70;99.00
48454;DHT22;34261;55.678;12.464;2022-09-20T08:54:11;16.60;98.30
48454;DHT22;34261;55.678;12.464;2022-09-20T08:56:40;16.50;97.80
48454;DHT22;34261;55.678;12.464;2022-09-20T08:59:14;16.30;98.40
48454;DHT22;34261;55.678;12.464;2022-09-20T09:01:40;16.20;98.70
48454;DHT22;34261;55.678;12.464;2022-09-20T09:06:41;16.10;98.80
48454;DHT22;34261;55.678;12.464;2022-09-20T09:09:07;15.90;98.80
48454;DHT22;34261;55.678;12.464;2022-09-20T09:11:40;15.80;99.10
48454;DHT22;34261;55.678;12.464;2022-09-20T09:14:15;15.80;99.40
48454;DHT22;34261;55.678;12.464;2022-09-20T09:17:00;15.80;99.30
48454;DHT22;34261;55.678;12.464;2022-09-20T09:19:31;15.90;99.40
48454;DHT22;34261;55.678;12.464;2022-09-20T09:22:02;15.80;98.60
48454;DHT22;34261;55.678;12.464;2022-09-20T09:24:28;15.70;99.00
48454;DHT22;34261;55.678;12.464;2022-09-20T09:27:16;15.70;99.20
48454;DHT22;34261;55.678;12.464;2022-09-20T09:29:51;15.70;99.50
48454;DHT22;34261;55.678;12.464;2022-09-20T09:32:24;15.80;99.90
48454;DHT22;34261;55.678;12.464;2022-09-20T09:34:51;15.90;99.00
48454;DHT22;34261;55.678;12.464;2022-09-20T09:37:30;15.90;98.10
48454;DHT22;34261;55.678;12.464;2022-09-20T09:40:17;15.90;97.40
48454;DHT22;34261;55.678;12.464;2022-09-20T09:42:57;16.10;96.40
48454;DHT22;34261;55.678;12.464;2022-09-20T09:45:28;16.30;96.60
48454;DHT22;34261;55.678;12.464;2022-09-20T09:47:56;16.30;96.80
48454;DHT22;34261;55.678;12.464;2022-09-20T09:50:26;16.50;96.80
48454;DHT22;34261;55.678;12.464;2022-09-20T09:53:14;16.40;96.20
48454;DHT22;34261;55.678;12.464;2022-09-20T09:58:39;16.40;97.10
48454;DHT22;34261;55.678;12.464;2022-09-20T10:04:08;17.20;96.20
48454;DHT22;34261;55.678;12.464;2022-09-20T10:06:48;17.50;96.20
48454;DHT22;34261;55.678;12.464;2022-09-20T10:12:20;17.00;96.30
48454;DHT22;34261;55.678;12.464;2022-09-20T10:17:49;17.60;95.30
48454;DHT22;34261;55.678;12.464;2022-09-20T10:20:29;17.60;94.60
48454;DHT22;34261;55.678;12.464;2022-09-20T10:25:40;17.40;94.10
48454;DHT22;34261;55.678;12.464;2022-09-20T10:36:13;17.50;95.30
48454;DHT22;34261;55.678;12.464;2022-09-20T10:52:25;17.70;93.90
48454;DHT22;34261;55.678;12.464;2022-09-20T11:00:57;18.90;92.20
48454;DHT22;34261;55.678;12.464;2022-09-20T11:06:28;19.20;91.40
48454;DHT22;34261;55.678;12.464;2022-09-20T11:09:03;19.50;92.00
48454;DHT22;34261;55.678;12.464;2022-09-20T11:11:35;19.70;91.80
48454;DHT22;34261;55.678;12.464;2022-09-20T11:14:14;19.50;91.50
48454;DHT22;34261;55.678;12.464;2022-09-20T11:16:53;19.40;91.80
48454;DHT22;34261;55.678;12.464;2022-09-20T11:19:21;19.80;92.20
48454;DHT22;34261;55.678;12.464;2022-09-20T11:22:21;19.70;91.90
48454;DHT22;34261;55.678;12.464;2022-09-20T11:24:56;20.00;90.80
48454;DHT22;34261;55.678;12.464;2022-09-20T11:27:27;20.30;90.80
48454;DHT22;34261;55.678;12.464;2022-09-20T11:32:40;20.50;90.50
48454;DHT22;34261;55.678;12.464;2022-09-20T11:37:39;20.30;89.70
48454;DHT22;34261;55.678;12.464;2022-09-20T11:40:27;20.40;90.10
48454;DHT22;34261;55.678;12.464;2022-09-20T11:42:56;20.80;91.20
48454;DHT22;34261;55.678;12.464;2022-09-20T11:45:27;21.10;90.20
48454;DHT22;34261;55.678;12.464;2022-09-20T11:48:01;21.20;88.40
48454;DHT22;34261;55.678;12.464;2022-09-20T11:55:39;20.20;90.30
48454;DHT22;34261;55.678;12.464;2022-09-20T11:58:15;19.70;91.20
48454;DHT22;34261;55.678;12.464;2022-09-20T12:00:44;19.40;92.20
48454;DHT22;34261;55.678;12.464;2022-09-20T12:03:30;19.20;92.10
48454;DHT22;34261;55.678;12.464;2022-09-20T12:06:03;18.90;92.50
48454;DHT22;34261;55.678;12.464;2022-09-20T12:08:34;18.60;92.30
48454;DHT22;34261;55.678;12.464;2022-09-20T12:11:09;18.30;92.60
48454;DHT22;34261;55.678;12.464;2022-09-20T12:13:39;18.30;93.00
48454;DHT22;34261;55.678;12.464;2022-09-20T12:16:16;18.30;93.00
48454;DHT22;34261;55.678;12.464;2022-09-20T12:18:59;18.30;93.60
48454;DHT22;34261;55.678;12.464;2022-09-20T12:21:25;18.80;93.50
48454;DHT22;34261;55.678;12.464;2022-09-20T12:28:52;20.10;91.50
48454;DHT22;34261;55.678;12.464;2022-09-20T12:39:36;19.10;90.90
48454;DHT22;34261;55.678;12.464;2022-09-20T12:44:39;19.10;93.50
48454;DHT22;34261;55.678;12.464;2022-09-20T13:00:44;19.80;90.40
48454;DHT22;34261;55.678;12.464;2022-09-20T13:05:41;19.30;90.80
48454;DHT22;34261;55.678;12.464;2022-09-20T13:08:25;19.20;91.40
48454;DHT22;34261;55.678;12.464;2022-09-20T13:14:01;19.80;92.60
48454;DHT22;34261;55.678;12.464;2022-09-20T13:16:33;20.30;91.10
48454;DHT22;34261;55.678;12.464;2022-09-20T13:21:35;21.30;90.50
48454;DHT22;34261;55.678;12.464;2022-09-20T13:24:03;21.40;90.00
48454;DHT22;34261;55.678;12.464;2022-09-20T13:26:39;21.20;90.20
48454;DHT22;34261;55.678;12.464;2022-09-20T13:29:16;20.80;88.70
48454;DHT22;34261;55.678;12.464;2022-09-20T13:31:45;20.40;88.90
48454;DHT22;34261;55.678;12.464;2022-09-20T13:34:20;20.00;89.80
48454;DHT22;34261;55.678;12.464;2022-09-20T13:36:46;19.60;89.90
48454;DHT22;34261;55.678;12.464;2022-09-20T13:39:25;19.50;91.10
48454;DHT22;34261;55.678;12.464;2022-09-20T13:41:51;19.60;91.10
48454;DHT22;34261;55.678;12.464;2022-09-20T13:44:18;20.10;91.00
48454;DHT22;34261;55.678;12.464;2022-09-20T13:46:45;20.40;90.30
48454;DHT22;34261;55.678;12.464;2022-09-20T13:49:19;20.50;89.70
48454;DHT22;34261;55.678;12.464;2022-09-20T13:51:49;20.90;89.70
48454;DHT22;34261;55.678;12.464;2022-09-20T13:54:30;20.90;86.70
48454;DHT22;34261;55.678;12.464;2022-09-20T13:57:01;20.70;88.90
48454;DHT22;34261;55.678;12.464;2022-09-20T13:59:32;20.10;90.10
48454;DHT22;34261;55.678;12.464;2022-09-20T14:02:02;19.90;90.70
48454;DHT22;34261;55.678;12.464;2022-09-20T14:04:30;20.10;90.90
48454;DHT22;34261;55.678;12.464;2022-09-20T14:06:58;20.00;90.60
48454;DHT22;34261;55.678;12.464;2022-09-20T14:09:43;19.80;90.20
48454;DHT22;34261;55.678;12.464;2022-09-20T14:12:10;19.80;91.30
48454;DHT22;34261;55.678;12.464;2022-09-20T14:14:38;19.90;91.50
48454;DHT22;34261;55.678;12.464;2022-09-20T14:17:07;19.90;91.40
48454;DHT22;34261;55.678;12.464;2022-09-20T14:19:38;20.10;91.40
48454;DHT22;34261;55.678;12.464;2022-09-20T14:22:06;19.90;91.40
48454;DHT22;34261;55.678;12.464;2022-09-20T14:24:34;20.20;91.40
48454;DHT22;34261;55.678;12.464;2022-09-20T14:27:05;20.20;90.60
48454;DHT22;34261;55.678;12.464;2022-09-20T14:29:49;19.90;91.00
48454;DHT22;34261;55.678;12.464;2022-09-20T14:34:44;19.30;91.20
48454;DHT22;34261;55.678;12.464;2022-09-20T14:37:26;19.20;91.30
48454;DHT22;34261;55.678;12.464;2022-09-20T14:40:03;19.30;91.30
48454;DHT22;34261;55.678;12.464;2022-09-20T14:42:35;19.20;91.10
48454;DHT22;34261;55.678;12.464;2022-09-20T14:45:03;19.50;91.30
48454;DHT22;34261;55.678;12.464;2022-09-20T14:47:54;19.90;91.10
48454;DHT22;34261;55.678;12.464;2022-09-20T14:50:25;20.20;91.00
48454;DHT22;34261;55.678;12.464;2022-09-20T14:55:57;20.80;90.00
48454;DHT22;34261;55.678;12.464;2022-09-20T14:58:26;20.90;90.00
48454;DHT22;34261;55.678;12.464;2022-09-20T15:01:03;21.00;90.70
48454;DHT22;34261;55.678;12.464;2022-09-20T15:03:39;21.10;90.10
48454;DHT22;34261;55.678;12.464;2022-09-20T15:37:09;19.20;92.00
48454;DHT22;34261;55.678;12.464;2022-09-20T15:39:35;18.90;91.90
48454;DHT22;34261;55.678;12.464;2022-09-20T15:42:03;18.80;92.20
48454;DHT22;34261;55.678;12.464;2022-09-20T15:44:29;18.50;92.30
48454;DHT22;34261;55.678;12.464;2022-09-20T15:46:55;18.30;92.30
48454;DHT22;34261;55.678;12.464;2022-09-20T15:49:21;18.10;92.80
48454;DHT22;34261;55.678;12.464;2022-09-20T15:51:47;17.90;92.30
48454;DHT22;34261;55.678;12.464;2022-09-20T15:54:13;17.80;92.70
48454;DHT22;34261;55.678;12.464;2022-09-20T15:56:39;17.60;92.50
48454;DHT22;34261;55.678;12.464;2022-09-20T15:59:07;17.40;92.80
48454;DHT22;34261;55.678;12.464;2022-09-20T16:01:35;17.40;93.10
48454;DHT22;34261;55.678;12.464;2022-09-20T16:04:13;17.30;93.60
48454;DHT22;34261;55.678;12.464;2022-09-20T16:06:41;17.20;93.90
48454;DHT22;34261;55.678;12.464;2022-09-20T16:09:07;17.20;94.10
48454;DHT22;34261;55.678;12.464;2022-09-20T16:11:33;17.10;94.10
48454;DHT22;34261;55.678;12.464;2022-09-20T16:14:00;17.10;94.10
48454;DHT22;34261;55.678;12.464;2022-09-20T16:16:27;17.00;94.30
48454;DHT22;34261;55.678;12.464;2022-09-20T16:18:53;16.90;94.40
48454;DHT22;34261;55.678;12.464;2022-09-20T16:21:39;16.80;94.80
48454;DHT22;34261;55.678;12.464;2022-09-20T16:24:05;16.80;94.80
48454;DHT22;34261;55.678;12.464;2022-09-20T16:26:31;16.80;94.80
48454;DHT22;34261;55.678;12.464;2022-09-20T16:28:59;16.70;94.80
48454;DHT22;34261;55.678;12.464;2022-09-20T16:31:32;16.60;95.00
48454;DHT22;34261;55.678;12.464;2022-09-20T16:34:04;16.50;94.90
48454;DHT22;34261;55.678;12.464;2022-09-20T16:36:31;16.50;95.10
48454;DHT22;34261;55.678;12.464;2022-09-20T16:38:58;16.50;95.30
48454;DHT22;34261;55.678;12.464;2022-09-20T16:41:25;16.40;95.20
48454;DHT22;34261;55.678;12.464;2022-09-20T16:43:51;16.30;95.30
48454;DHT22;34261;55.678;12.464;2022-09-20T16:46:18;16.20;95.30
48454;DHT22;34261;55.678;12.464;2022-09-20T16:48:46;16.20;95.70
48454;DHT22;34261;55.678;12.464;2022-09-20T16:51:13;16.20;96.10
48454;DHT22;34261;55.678;12.464;2022-09-20T16:53:39;16.10;96.10
48454;DHT22;34261;55.678;12.464;2022-09-20T16:56:05;16.00;96.30
48454;DHT22;34261;55.678;12.464;2022-09-20T16:58:32;16.00;96.60
48454;DHT22;34261;55.678;12.464;2022-09-20T17:01:06;16.00;97.00
48454;DHT22;34261;55.678;12.464;2022-09-20T17:03:33;15.90;96.90
48454;DHT22;34261;55.678;12.464;2022-09-20T17:06:03;15.90;97.10
48454;DHT22;34261;55.678;12.464;2022-09-20T17:08:30;15.90;97.50
48454;DHT22;34261;55.678;12.464;2022-09-20T17:10:59;15.80;97.60
48454;DHT22;34261;55.678;12.464;2022-09-20T17:13:28;15.70;97.80
48454;DHT22;34261;55.678;12.464;2022-09-20T17:16:06;15.60;97.70
48454;DHT22;34261;55.678;12.464;2022-09-20T17:18:32;15.60;97.70
48454;DHT22;34261;55.678;12.464;2022-09-20T17:21:05;15.60;97.80
48454;DHT22;34261;55.678;12.464;2022-09-20T17:23:32;15.50;97.60
48454;DHT22;34261;55.678;12.464;2022-09-20T17:26:05;15.40;97.90
48454;DHT22;34261;55.678;12.464;2022-09-20T17:28:40;15.40;97.90
48454;DHT22;34261;55.678;12.464;2022-09-20T17:31:06;15.30;98.10
48454;DHT22;34261;55.678;12.464;2022-09-20T17:33:34;15.30;98.10
48454;DHT22;34261;55.678;12.464;2022-09-20T17:36:00;15.30;98.30
48454;DHT22;34261;55.678;12.464;2022-09-20T17:38:27;15.30;98.50
48454;DHT22;34261;55.678;12.464;2022-09-20T17:41:05;15.20;98.40
48454;DHT22;34261;55.678;12.464;2022-09-20T17:43:34;15.10;98.60
48454;DHT22;34261;55.678;12.464;2022-09-20T17:46:15;15.10;98.70
48454;DHT22;34261;55.678;12.464;2022-09-20T17:48:42;15.00;98.80
48454;DHT22;34261;55.678;12.464;2022-09-20T17:51:18;14.90;99.00
48454;DHT22;34261;55.678;12.464;2022-09-20T17:53:45;14.90;99.20
48454;DHT22;34261;55.678;12.464;2022-09-20T17:56:13;14.90;99.30
48454;DHT22;34261;55.678;12.464;2022-09-20T17:58:39;14.80;99.30
48454;DHT22;34261;55.678;12.464;2022-09-20T18:01:12;14.80;99.40
48454;DHT22;34261;55.678;12.464;2022-09-20T18:03:41;14.70;99.50
48454;DHT22;34261;55.678;12.464;2022-09-20T18:08:40;14.50;99.90
48454;DHT22;34261;55.678;12.464;2022-09-20T18:11:06;14.50;99.90
48454;DHT22;34261;55.678;12.464;2022-09-20T18:13:33;14.40;99.90
48454;DHT22;34261;55.678;12.464;2022-09-20T18:15:58;14.30;99.90
48454;DHT22;34261;55.678;12.464;2022-09-20T18:18:24;14.30;99.90
48454;DHT22;34261;55.678;12.464;2022-09-20T18:20:50;14.30;99.90
48454;DHT22;34261;55.678;12.464;2022-09-20T18:23:15;14.30;99.90
48454;DHT22;34261;55.678;12.464;2022-09-20T18:25:41;14.30;99.90
48454;DHT22;34261;55.678;12.464;2022-09-20T18:28:25;14.30;99.90
48454;DHT22;34261;55.678;12.464;2022-09-20T18:31:01;14.30;99.90
48454;DHT22;34261;55.678;12.464;2022-09-20T18:33:28;14.20;99.90
48454;DHT22;34261;55.678;12.464;2022-09-20T18:36:04;14.20;99.90
48454;DHT22;34261;55.678;12.464;2022-09-20T18:38:30;14.10;99.90
48454;DHT22;34261;55.678;12.464;2022-09-20T18:40:59;14.10;99.90
48454;DHT22;34261;55.678;12.464;2022-09-20T18:43:30;14.00;99.90
48454;DHT22;34261;55.678;12.464;2022-09-20T18:45:58;14.00;99.90
48454;DHT22;34261;55.678;12.464;2022-09-20T18:48:25;14.00;99.90
48454;DHT22;34261;55.678;12.464;2022-09-20T18:51:02;13.90;99.90
48454;DHT22;34261;55.678;12.464;2022-09-20T18:53:30;13.80;99.90
48454;DHT22;34261;55.678;12.464;2022-09-20T18:56:24;13.80;99.90
48454;DHT22;34261;55.678;12.464;2022-09-20T18:58:53;13.80;99.90
48454;DHT22;34261;55.678;12.464;2022-09-20T19:12:56;13.50;99.90
48454;DHT22;34261;55.678;12.464;2022-09-20T19:18:25;13.40;99.90
48454;DHT22;34261;55.678;12.464;2022-09-20T19:26:20;13.30;99.90
48454;DHT22;34261;55.678;12.464;2022-09-20T19:28:51;13.30;99.90
48454;DHT22;34261;55.678;12.464;2022-09-20T19:31:30;13.20;99.90
48454;DHT22;34261;55.678;12.464;2022-09-20T19:33:59;13.20;99.90
48454;DHT22;34261;55.678;12.464;2022-09-20T19:37:28;13.10;99.90
48454;DHT22;34261;55.678;12.464;2022-09-20T19:45:39;13.00;99.90
48454;DHT22;34261;55.678;12.464;2022-09-20T19:48:35;12.90;99.90
48454;DHT22;34261;55.678;12.464;2022-09-20T19:51:04;12.90;99.90
48454;DHT22;34261;55.678;12.464;2022-09-20T19:53:32;12.80;99.90
48454;DHT22;34261;55.678;12.464;2022-09-20T19:56:24;12.80;99.90
48454;DHT22;34261;55.678;12.464;2022-09-20T19:58:51;12.80;99.90
48454;DHT22;34261;55.678;12.464;2022-09-20T20:01:22;12.70;99.90
48454;DHT22;34261;55.678;12.464;2022-09-20T20:03:52;12.70;99.90
48454;DHT22;34261;55.678;12.464;2022-09-20T20:06:57;12.80;99.90
48454;DHT22;34261;55.678;12.464;2022-09-20T20:09:37;12.70;99.90
48454;DHT22;34261;55.678;12.464;2022-09-20T20:15:02;12.70;99.90
48454;DHT22;34261;55.678;12.464;2022-09-20T20:17:52;12.70;99.90
48454;DHT22;34261;55.678;12.464;2022-09-20T20:26:25;12.50;99.90
48454;DHT22;34261;55.678;12.464;2022-09-20T20:28:52;12.50;99.90
48454;DHT22;34261;55.678;12.464;2022-09-20T20:31:19;12.50;99.90
48454;DHT22;34261;55.678;12.464;2022-09-20T20:33:44;12.50;99.90
48454;DHT22;34261;55.678;12.464;2022-09-20T20:36:10;12.50;99.90
48454;DHT22;34261;55.678;12.464;2022-09-20T20:38:38;12.40;99.90
48454;DHT22;34261;55.678;12.464;2022-09-20T20:41:12;12.30;99.90
48454;DHT22;34261;55.678;12.464;2022-09-20T20:43:40;12.40;99.90
48454;DHT22;34261;55.678;12.464;2022-09-20T20:46:09;12.30;99.90
48454;DHT22;34261;55.678;12.464;2022-09-20T20:48:35;12.30;99.90
48454;DHT22;34261;55.678;12.464;2022-09-20T20:51:07;12.30;99.90
48454;DHT22;34261;55.678;12.464;2022-09-20T20:53:39;12.30;99.90
48454;DHT22;34261;55.678;12.464;2022-09-20T20:56:10;12.20;99.90
48454;DHT22;34261;55.678;12.464;2022-09-20T20:58:38;12.20;99.90
48454;DHT22;34261;55.678;12.464;2022-09-20T21:01:14;12.20;99.90
48454;DHT22;34261;55.678;12.464;2022-09-20T21:03:41;12.10;99.90
48454;DHT22;34261;55.678;12.464;2022-09-20T21:06:08;12.10;99.90
48454;DHT22;34261;55.678;12.464;2022-09-20T21:08:39;12.10;99.90
48454;DHT22;34261;55.678;12.464;2022-09-20T21:11:08;12.10;99.90
48454;DHT22;34261;55.678;12.464;2022-09-20T21:13:34;12.10;99.90
48454;DHT22;34261;55.678;12.464;2022-09-20T21:16:11;12.10;99.90
48454;DHT22;34261;55.678;12.464;2022-09-20T21:18:40;12.10;99.90
48454;DHT22;34261;55.678;12.464;2022-09-20T21:21:33;12.00;99.90
48454;DHT22;34261;55.678;12.464;2022-09-20T21:24:05;12.00;99.90
48454;DHT22;34261;55.678;12.464;2022-09-20T21:26:31;11.90;99.90
48454;DHT22;34261;55.678;12.464;2022-09-20T21:29:05;11.90;99.90
48454;DHT22;34261;55.678;12.464;2022-09-20T21:31:33;11.90;99.90
48454;DHT22;34261;55.678;12.464;2022-09-20T21:33:59;11.80;99.90
48454;DHT22;34261;55.678;12.464;2022-09-20T21:36:29;11.80;99.90
48454;DHT22;34261;55.678;12.464;2022-09-20T21:38:55;11.80;99.90
48454;DHT22;34261;55.678;12.464;2022-09-20T21:41:22;11.70;99.90
48454;DHT22;34261;55.678;12.464;2022-09-20T21:43:50;11.70;99.90
48454;DHT22;34261;55.678;12.464;2022-09-20T21:46:19;11.70;99.90
48454;DHT22;34261;55.678;12.464;2022-09-20T21:48:46;11.60;99.90
48454;DHT22;34261;55.678;12.464;2022-09-20T21:51:14;11.60;99.90
48454;DHT22;34261;55.678;12.464;2022-09-20T21:53:40;11.60;99.90
48454;DHT22;34261;55.678;12.464;2022-09-20T21:56:11;11.60;99.90
48454;DHT22;34261;55.678;12.464;2022-09-20T21:58:38;11.60;99.90
48454;DHT22;34261;55.678;12.464;2022-09-20T22:01:09;11.50;99.90
48454;DHT22;34261;55.678;12.464;2022-09-20T22:03:38;11.50;99.90
48454;DHT22;34261;55.678;12.464;2022-09-20T22:06:14;11.60;99.90
48454;DHT22;34261;55.678;12.464;2022-09-20T22:08:48;11.50;99.90
48454;DHT22;34261;55.678;12.464;2022-09-20T22:11:15;11.50;99.90
48454;DHT22;34261;55.678;12.464;2022-09-20T22:13:43;11.50;99.90
48454;DHT22;34261;55.678;12.464;2022-09-20T22:16:14;11.40;99.90
48454;DHT22;34261;55.678;12.464;2022-09-20T22:18:41;11.40;99.90
48454;DHT22;34261;55.678;12.464;2022-09-20T22:23:37;11.40;99.90